Arendahl, Minnesota
Current Conditions -  °F | °C
As of 5:15 AM on Wednesday 22 Oct 2014 (Local Time) from KFKA Reporting Station
Clear Clear  
Wind Chill: 29°   Ceiling: Unl
Heat Index: 37°   Visibility: 10mi
Dew Point: 34°   Wind: 12mph
Humidity: 91%   Direction: 160°SSE
Pressure: 30.26"   Gusts: NA
Location:  43.7298°N, 91.8267°W
Report Text: KFKA 221015Z AUTO 16010KT 10SM CLR 03/01 A3026 RMK AO2 T00260012
Loading
Personal Weather Stations






























Interactive Weather Map
Tropical Storm Tracking
New forecast layout! Learn more

10-Day Weather Forecast

Advertisements
Track Severe Weather on mobile